Waitakeres Weather Go to January February March April May June
July Summaries Go to July August September October November December
Details 2007 2008 2009 2010 2011 2012 2013 2014 2015 2016 2017
Highest Temperature 17.2C 16.3C 14.9C 17.2C 16.2C 16.9C 16.9C 17.1C 15.8C 17.3C 16.1C
Lowest Temperature 4.3C 3.3C 3.3C 2.6C 1.9C 2.4C 2.4C 2.0C 0.7C 2.2C 1.8C
Average Temperature 11.7C 10.5C 10.2C 9.6C 10.4C 10.0C 9.9C 9.8C 9.5C 10.7C 9.8C
Highest Pressure 1024.0 hPa 1034.0 hPa 1026.0 hPa 1034.8 hPa 1031.0 hPa 1036.6 hPa 1033.8 hPa 1027.3 hPa 1036.0 hPa 1026.9 hPa 1031.6 hPa
Lowest Pressure 995.0 hPa 972.0 hPa 989.0 hPa 999.8 hPa 983.1 hPa 991.5 hPa 998.4 hPa 991.3 hPa 988.6 hPa 997.1 hPa 984.7 hPa
Total Rain - 265.3 mm 154.0 mm 152.0 mm 154.2 mm 156.4 mm 66.0 mm 123.0 mm 186.8 mm 219.2 mm 247.8 mm
Most Rain in 24 hrs - 47.7 mm 20.2 mm 24.0 mm 20.8 mm 31.8 mm 11.2 mm 15.8 mm 46.4 mm 25.8 mm 33.2 mm
Heaviest Rain       56.2 mm/hr 153.6 mm/hr 102.0 mm/hr 134.0 mm/hr 77.8 mm/hr 217.4 mm/hr 240.0 mm/hr 172.0 mm/hr
Number of Rain Days - 27 days 23 days 21 days 24 days 18 days 16 days 24 days 25 days 25 days 25 days
Highest Gust       27.4 km/hr 33.8 km/hr 30.6 km/hr 25.7 km/hr 51.5 km/hr 30.6 km/hr 41.8 km/hr 25.7 km/hr
Highest Average Wind       13.1 km/hr 8.4 km/hr 11.3 km/hr 6.4 km/hr 12.9 km/hr 8.0 km/hr 11.3 km/hr 9.7 km/hr
Highest Windrun       93.8 km 112.6 km 155.3 km 55.2 km 214.0 km 82.5 km 111.8 km 74.3 km
Back to Current Weather Go To Rainfall Data
Tabled Data - scroll down 2017 Temperature Pressure Rain Wind
for earlier years Maximum Minimum Average Maximum Minimum Day Total Maximum Rain Rate High Gust Highest Av Run
C C C hPa hPa mm mm/hr time km/h km/h km
01/07/2017 14.6C 10.2C 12.8C 1021.9 hPa 1011.6 hPa 24.4 mm 65.8 mm/hr 19:51 hrs 22.5 km/hr 8.0 km/hr 74.3 km
02/07/2017 14.4C 7.7C 11.0C 1012.1 hPa 1005.6 hPa 16.4 mm 37.8 mm/hr 22:35 hrs 9.7 km/hr 3.2 km/hr 9.0 km
03/07/2017 13.6C 8.0C 10.3C 1011.0 hPa 1004.0 hPa 11.2 mm 45.6 mm/hr 07:06 hrs 12.9 km/hr 3.2 km/hr 7.8 km
04/07/2017 14.6C 7.6C 10.4C 1017.1 hPa 1010.7 hPa 1.2 mm 6.2 mm/hr 08:11 hrs 12.9 km/hr 1.6 km/hr 6.8 km
05/07/2017 14.1C 8.4C 10.7C 1018.1 hPa 1014.8 hPa 8.8 mm 25.0 mm/hr 11:33 hrs 6.4 km/hr 1.6 km/hr 0.5 km
06/07/2017 14.9C 9.8C 11.4C 1014.8 hPa 1004.9 hPa 24.0 mm 82.2 mm/hr 16:27 hrs 11.3 km/hr 3.2 km/hr 11.8 km
07/07/2017 14.5C 7.7C 11.4C 1009.4 hPa 1002.3 hPa 4.2 mm 25.0 mm/hr 08:22 hrs 8.0 km/hr 1.6 km/hr 4.3 km
08/07/2017 15.6C 7.1C 10.3C 1012.4 hPa 1006.9 hPa 6.8 mm 39.8 mm/hr 09:32 hrs 9.7 km/hr 1.6 km/hr 0.9 km
09/07/2017 14.7C 8.6C 10.7C 1006.9 hPa 999.7 hPa 10.0 mm 86.6 mm/hr 13:28 hrs 16.1 km/hr 3.2 km/hr 11.6 km
10/07/2017 14.6C 7.5C 10.6C 1015.3 hPa 1006.5 hPa 3.8 mm 29.2 mm/hr 11:59 hrs 14.5 km/hr 3.2 km/hr 17.4 km
11/07/2017 13.8C 6.8C 9.2C 1016.1 hPa 1012.1 hPa 4.4 mm 12.4 mm/hr 18:06 hrs 6.4 km/hr 1.6 km/hr 0.7 km
12/07/2017 11.3C 4.1C 7.6C 1012.1 hPa 1007.6 hPa 8.6 mm 121.2 mm/hr 02:24 hrs 12.9 km/hr 3.2 km/hr 14.6 km
13/07/2017 9.4C 2.5C 5.7C 1010.9 hPa 1005.4 hPa 16.0 mm 32.0 mm/hr 18:01 hrs 24.1 km/hr 6.4 km/hr 38.6 km
14/07/2017 10.2C 3.8C 7.7C 1019.2 hPa 1008.2 hPa 2.8 mm 2.4 mm/hr 05:47 hrs 22.5 km/hr 4.8 km/hr 33.5 km
15/07/2017 13.9C 5.1C 8.4C 1025.8 hPa 1019.1 hPa 0.0 mm 0.0 mm/hr 00:00 hrs 9.7 km/hr 1.6 km/hr 6.4 km
16/07/2017 15.2C 5.1C 9.0C 1027.7 hPa 1025.0 hPa 0.0 mm 0.0 mm/hr 00:00 hrs 8.0 km/hr 1.6 km/hr 0.5 km
17/07/2017 14.1C 5.6C 10.4C 1027.1 hPa 1022.2 hPa 0.0 mm 0.0 mm/hr 00:00 hrs 12.9 km/hr 3.2 km/hr 8.5 km
18/07/2017 16.1C 8.9C 11.8C 1022.3 hPa 1016.5 hPa 0.0 mm 0.0 mm/hr 00:00 hrs 11.3 km/hr 3.2 km/hr 8.5 km
19/07/2017 15.3C 7.4C 10.8C 1017.3 hPa 1011.0 hPa 1.2 mm 4.0 mm/hr 11:01 hrs 11.3 km/hr 3.2 km/hr 4.6 km
20/07/2017 15.4C 6.9C 11.7C 1011.2 hPa 984.7 hPa 33.2 mm 35.8 mm/hr 18:28 hrs 25.7 km/hr 9.7 km/hr 71.2 km
21/07/2017 13.6C 9.3C 11.4C 992.7 hPa 985.6 hPa 15.6 mm 172.0 mm/hr 14:59 hrs 22.5 km/hr 4.8 km/hr 46.8 km
22/07/2017 13.7C 10.3C 11.7C 999.3 hPa 987.3 hPa 16.6 mm 74.4 mm/hr 10:26 hrs 25.7 km/hr 4.8 km/hr 39.8 km
23/07/2017 14.7C 7.7C 10.7C 1008.6 hPa 999.3 hPa 4.6 mm 39.6 mm/hr 18:28 hrs 9.7 km/hr 1.6 km/hr 3.8 km
24/07/2017 14.7C 7.7C 10.7C 1010.4 hPa 1007.5 hPa 3.0 mm 13.2 mm/hr 22:57 hrs 11.3 km/hr 1.6 km/hr 8.7 km
25/07/2017 15.3C 6.6C 10.3C 1011.0 hPa 1006.4 hPa 8.0 mm 20.4 mm/hr 01:06 hrs 11.3 km/hr 1.6 km/hr 4.2 km
26/07/2017 15.1C 6.1C 9.8C 1013.5 hPa 1010.5 hPa 1.0 mm 4.6 mm/hr 07:57 hrs 12.9 km/hr 3.2 km/hr 9.4 km
27/07/2017 14.1C 6.0C 9.8C 1011.9 hPa 1002.6 hPa 13.8 mm 12.0 mm/hr 22:04 hrs 17.7 km/hr 4.8 km/hr 13.8 km
28/07/2017 13.8C 5.4C 9.8C 1016.5 hPa 1003.6 hPa 8.0 mm 20.4 mm/hr 08:55 hrs 9.7 km/hr 1.6 km/hr 3.9 km
29/07/2017 10.9C 1.9C 5.5C 1026.5 hPa 1016.4 hPa 0.0 mm 0.0 mm/hr 00:00 hrs 11.3 km/hr 3.2 km/hr 9.1 km
30/07/2017 14.1C 1.8C 5.7C 1030.0 hPa 1026.4 hPa 0.0 mm 0.0 mm/hr 00:00 hrs 11.3 km/hr 1.6 km/hr 3.8 km
Back to top 31/07/2017 13.8C 2.6C 6.6C 1031.6 hPa 1028.1 hPa 0.2 mm 0.0 mm/hr 00:00 hrs 6.4 km/hr 1.6 km/hr 0.4 km
Tabled Data - scroll down 2016 Temperature Pressure Rain Wind
for earlier years Maximum Minimum Average Maximum Minimum Day Total Maximum Rain Rate High Gust Highest Av Run
C C C hPa hPa mm mm/hr time km/h km/h km
01/07/2016 12.6C 3.3C 7.3C 1023.6 hPa 1011.8 hPa 0.2 mm 0.0 mm/hr 00:00 hrs 12.9 km/hr 1.6 km/hr 4.4 km
02/07/2016 13.0C 2.2C 5.9C 1025.3 hPa 1023.0 hPa 0.0 mm 0.0 mm/hr 00:00 hrs 11.3 km/hr 1.6 km/hr 1.9 km
03/07/2016 14.2C 2.6C 6.9C 1024.0 hPa 1020.3 hPa 0.2 mm 0.0 mm/hr 00:00 hrs 6.4 km/hr 1.6 km/hr 0.7 km
04/07/2016 16.1C 6.2C 9.8C 1021.6 hPa 1019.1 hPa 0.0 mm 0.0 mm/hr 00:00 hrs 6.4 km/hr 1.6 km/hr 1.2 km
05/07/2016 15.9C 6.2C 10.0C 1023.3 hPa 1021.1 hPa 0.0 mm 0.0 mm/hr 00:00 hrs 6.4 km/hr 0.0 km/hr 0.0 km
06/07/2016 15.6C 7.7C 11.5C 1023.6 hPa 1019.9 hPa 0.2 mm 0.0 mm/hr 00:00 hrs 0.0 km/hr 0.0 km/hr 0.0 km
07/07/2016 13.7C 10.6C 12.1C 1020.3 hPa 1006.2 hPa 21.0 mm 44.4 mm/hr 22:57 hrs 38.6 km/hr 11.3 km/hr 111.8 km
08/07/2016 15.2C 12.6C 13.5C 1008.1 hPa 1002.5 hPa 4.8 mm 20.4 mm/hr 00:04 hrs 22.5 km/hr 4.8 km/hr 24.0 km
09/07/2016 13.1C 8.4C 10.6C 1014.1 hPa 1008.0 hPa 0.2 mm 0.0 mm/hr 00:00 hrs 20.9 km/hr 3.2 km/hr 23.5 km
10/07/2016 13.3C 7.7C 9.6C 1021.0 hPa 1013.8 hPa 0.0 mm 0.0 mm/hr 00:00 hrs 19.3 km/hr 4.8 km/hr 19.7 km
11/07/2016 12.9C 6.9C 9.1C 1026.2 hPa 1020.6 hPa 0.0 mm 0.0 mm/hr 00:00 hrs 12.9 km/hr 3.2 km/hr 9.1 km
12/07/2016 14.6C 4.4C 8.6C 1026.9 hPa 1024.2 hPa 0.0 mm 0.0 mm/hr 00:00 hrs 12.9 km/hr 3.2 km/hr 4.9 km
13/07/2016 14.2C 5.8C 9.7C 1025.3 hPa 1013.4 hPa 9.2 mm 3.4 mm/hr 23:55 hrs 20.9 km/hr 6.4 km/hr 15.8 km
14/07/2016 13.8C 9.1C 11.6C 1014.5 hPa 1006.1 hPa 12.4 mm 56.0 mm/hr 22:07 hrs 20.9 km/hr 6.4 km/hr 46.9 km
15/07/2016 16.2C 9.3C 12.0C 1013.2 hPa 1006.4 hPa 9.6 mm 70.6 mm/hr 03:27 hrs 25.7 km/hr 4.8 km/hr 34.3 km
16/07/2016 13.7C 8.1C 10.1C 1016.2 hPa 1009.3 hPa 14.4 mm 106.6 mm/hr 03:14 hrs 22.5 km/hr 3.2 km/hr 27.4 km
17/07/2016 15.0C 8.8C 11.1C 1015.9 hPa 1009.4 hPa 11.8 mm 79.0 mm/hr 12:02 hrs 25.7 km/hr 4.8 km/hr 53.8 km
18/07/2016 14.7C 8.8C 10.8C 1012.9 hPa 1008.8 hPa 7.4 mm 47.8 mm/hr 01:37 hrs 24.1 km/hr 4.8 km/hr 45.2 km
19/07/2016 14.1C 9.4C 12.0C 1012.8 hPa 1003.7 hPa 4.2 mm 15.0 mm/hr 07:26 hrs 20.9 km/hr 4.8 km/hr 28.8 km
20/07/2016 14.2C 10.2C 11.5C 1014.9 hPa 1004.1 hPa 10.2 mm 77.8 mm/hr 01:32 hrs 24.1 km/hr 6.4 km/hr 58.1 km
21/07/2016 14.6C 8.2C 11.4C 1020.7 hPa 1014.6 hPa 1.0 mm 16.4 mm/hr 05:14 hrs 14.5 km/hr 3.2 km/hr 18.3 km
22/07/2016 14.3C 8.4C 11.1C 1021.0 hPa 1010.9 hPa 8.6 mm 4.6 mm/hr 18:23 hrs 12.9 km/hr 3.2 km/hr 17.6 km
23/07/2016 15.8C 12.2C 13.6C 1011.0 hPa 1000.0 hPa 7.4 mm 13.6 mm/hr 01:31 hrs 24.1 km/hr 8.0 km/hr 44.9 km
24/07/2016 17.3C 11.7C 14.0C 1006.5 hPa 997.1 hPa 17.2 mm 66.6 mm/hr 03:18 hrs 41.8 km/hr 11.3 km/hr 66.4 km
25/07/2016 15.6C 7.4C 11.3C 1012.5 hPa 1006.5 hPa 1.4 mm 11.0 mm/hr 05:03 hrs 16.1 km/hr 3.2 km/hr 16.1 km
26/07/2016 15.7C 7.3C 10.7C 1016.3 hPa 1007.1 hPa 16.4 mm 29.6 mm/hr 05:56 hrs 14.5 km/hr 3.2 km/hr 9.7 km
27/07/2016 16.2C 6.8C 11.2C 1017.9 hPa 1015.8 hPa 0.4 mm 0.0 mm/hr 00:00 hrs 19.3 km/hr 3.2 km/hr 8.4 km
28/07/2016 14.8C 10.6C 12.4C 1015.9 hPa 1002.1 hPa 25.8 mm 240.0 mm/hr 17:18 hrs 17.7 km/hr 4.8 km/hr 25.1 km
29/07/2016 14.9C 9.8C 11.9C 1010.8 hPa 1004.2 hPa 9.0 mm 172.0 mm/hr 09:24 hrs 32.2 km/hr 6.4 km/hr 48.9 km
30/07/2016 15.3C 8.7C 11.7C 1012.0 hPa 1004.9 hPa 16.4 mm 180.0 mm/hr 19:28 hrs 20.9 km/hr 4.8 km/hr 26.2 km
Back to top 31/07/2016 12.4C 8.9C 10.0C 1012.2 hPa 1008.1 hPa 9.8 mm 131.0 mm/hr 13:40 hrs 17.7 km/hr 3.2 km/hr 29.4 km
Tabled Data - scroll down 2015 Temperature Pressure Rain Wind
for earlier years Maximum Minimum Average Maximum Minimum Day Total Maximum Rain Rate High Gust Highest Av Run
C C C hPa hPa mm mm/hr time km/h km/h km
01/07/2015 15.3C 7.6C 11.4C 1022.6 hPa 1020.1 hPa 0.6 mm 0.0 mm/hr 00:00 hrs 17.7 km/hr 3.2 km/hr 19.7 km
02/07/2015 14.9C 6.8C 9.7C 1022.8 hPa 1018.4 hPa 0.2 mm 0.0 mm/hr 00:00 hrs 9.7 km/hr 0.0 km/hr 0.0 km
03/07/2015 14.7C 5.0C 10.2C 1018.5 hPa 1008.7 hPa 3.2 mm 2.4 mm/hr 13:52 hrs 20.9 km/hr 4.8 km/hr 12.2 km
04/07/2015 14.2C 11.4C 12.5C 1009.8 hPa 1003.5 hPa 2.0 mm 8.8 mm/hr 08:56 hrs 9.7 km/hr 1.6 km/hr 2.3 km
05/07/2015 14.1C 9.2C 11.5C 1010.9 hPa 1004.7 hPa 4.8 mm 21.4 mm/hr 23:28 hrs 17.7 km/hr 4.8 km/hr 50.9 km
06/07/2015 15.4C 10.8C 12.7C 1011.0 hPa 1007.9 hPa 6.6 mm 102.0 mm/hr 23:22 hrs 14.5 km/hr 3.2 km/hr 13.6 km
07/07/2015 15.6C 10.1C 12.1C 1008.0 hPa 998.6 hPa 41.0 mm 144.0 mm/hr 04:54 hrs 25.7 km/hr 4.8 km/hr 28.5 km
08/07/2015 12.3C 2.2C 8.0C 1011.2 hPa 998.4 hPa 1.0 mm 0.0 mm/hr 00:00 hrs 11.3 km/hr 3.2 km/hr 5.7 km
09/07/2015 9.3C 2.0C 5.3C 1019.8 hPa 1011.2 hPa 0.8 mm 0.0 mm/hr 00:00 hrs 17.7 km/hr 3.2 km/hr 9.1 km
10/07/2015 10.4C 1.9C 5.9C 1024.9 hPa 1019.1 hPa 0.0 mm 0.0 mm/hr 00:00 hrs 17.7 km/hr 3.2 km/hr 17.9 km
11/07/2015 11.6C 1.9C 5.3C 1026.9 hPa 1024.4 hPa 0.2 mm 0.0 mm/hr 00:00 hrs 9.7 km/hr 1.6 km/hr 5.3 km
12/07/2015 12.6C 0.7C 5.1C 1030.4 hPa 1026.4 hPa 0.0 mm 0.0 mm/hr 00:00 hrs 9.7 km/hr 3.2 km/hr 4.5 km
13/07/2015 13.7C 2.9C 7.1C 1032.4 hPa 1029.1 hPa 0.2 mm 0.0 mm/hr 00:00 hrs 17.7 km/hr 4.8 km/hr 18.3 km
14/07/2015 13.1C 7.0C 10.3C 1029.1 hPa 1021.8 hPa 0.6 mm 3.4 mm/hr 03:00 hrs 30.6 km/hr 8.0 km/hr 82.5 km
15/07/2015 13.8C 11.7C 12.6C 1021.9 hPa 1013.5 hPa 46.4 mm 217.4 mm/hr 17:38 hrs 27.4 km/hr 8.0 km/hr 71.0 km
16/07/2015 15.6C 7.6C 11.4C 1017.1 hPa 1013.9 hPa 1.2 mm 1.6 mm/hr 05:43 hrs 11.3 km/hr 1.6 km/hr 8.4 km
17/07/2015 14.6C 6.2C 9.8C 1018.5 hPa 1013.5 hPa 1.8 mm 38.6 mm/hr 06:19 hrs 12.9 km/hr 1.6 km/hr 1.1 km
18/07/2015 14.5C 5.3C 10.5C 1013.8 hPa 988.6 hPa 21.0 mm 72.0 mm/hr 19:28 hrs 30.6 km/hr 8.0 km/hr 53.7 km
19/07/2015 11.5C 8.1C 9.7C 1015.7 hPa 993.2 hPa 4.8 mm 44.4 mm/hr 00:47 hrs 25.7 km/hr 8.0 km/hr 66.9 km
20/07/2015 13.4C 7.8C 9.9C 1018.5 hPa 1015.6 hPa 6.4 mm 25.4 mm/hr 00:03 hrs 22.5 km/hr 4.8 km/hr 47.3 km
21/07/2015 13.7C 2.8C 9.0C 1029.9 hPa 1018.5 hPa 0.0 mm 0.0 mm/hr 00:00 hrs 20.9 km/hr 4.8 km/hr 26.6 km
22/07/2015 15.5C 5.3C 8.7C 1034.7 hPa 1029.6 hPa 0.0 mm 0.0 mm/hr 00:00 hrs 11.3 km/hr 1.6 km/hr 2.9 km
23/07/2015 13.9C 4.2C 7.7C 1036.0 hPa 1033.5 hPa 0.0 mm 0.0 mm/hr 00:00 hrs 4.8 km/hr 1.6 km/hr 1.0 km
24/07/2015 13.0C 6.6C 9.2C 1034.7 hPa 1031.0 hPa 0.0 mm 0.0 mm/hr 00:00 hrs 8.0 km/hr 1.6 km/hr 2.2 km
25/07/2015 12.8C 5.5C 8.4C 1033.3 hPa 1028.6 hPa 0.2 mm 0.0 mm/hr 00:00 hrs 11.3 km/hr 3.2 km/hr 8.1 km
26/07/2015 12.9C 8.4C 10.9C 1028.8 hPa 1022.1 hPa 15.4 mm 23.6 mm/hr 15:52 hrs 16.1 km/hr 4.8 km/hr 14.4 km
27/07/2015 15.6C 11.3C 12.7C 1022.3 hPa 1009.9 hPa 4.8 mm 18.2 mm/hr 12:33 hrs 16.1 km/hr 4.8 km/hr 18.8 km
28/07/2015 15.8C 8.8C 11.5C 1010.2 hPa 1007.3 hPa 7.4 mm 68.2 mm/hr 20:02 hrs 19.3 km/hr 4.8 km/hr 18.9 km
29/07/2015 12.6C 5.3C 9.2C 1020.0 hPa 1008.8 hPa 15.0 mm 86.6 mm/hr 09:49 hrs 20.9 km/hr 4.8 km/hr 45.8 km
30/07/2015 13.5C 3.0C 6.8C 1026.0 hPa 1019.8 hPa 0.2 mm 0.0 mm/hr 00:00 hrs 11.3 km/hr 1.6 km/hr 1.2 km
Back to top 31/07/2015 13.8C 6.5C 8.9C 1026.4 hPa 1024.1 hPa 1.0 mm 0.0 mm/hr 00:00 hrs 9.7 km/hr 1.6 km/hr 1.0 km
Tabled Data - scroll down 2014 Temperature Pressure Rain Wind
for earlier years Maximum Minimum Average Maximum Minimum Day Total Maximum Rain Rate High Gust Highest Av Run
C C C hPa hPa mm mm/hr time km/h km/h km
01/07/2014 14.2C 8.3C 11.5C 1006.3 hPa 997.9 hPa 10.4 mm 35.6 mm/hr 14:58 hrs 19.3 km/hr 3.2 km/hr 21.5 km
02/07/2014 11.8C 6.3C 9.0C 999.0 hPa 995.9 hPa 11.8 mm 71.6 mm/hr 21:51 hrs 19.3 km/hr 4.8 km/hr 62.4 km
03/07/2014 12.4C 5.7C 8.3C 1001.9 hPa 996.2 hPa 4.4 mm 19.4 mm/hr 07:23 hrs 17.7 km/hr 6.4 km/hr 31.1 km
04/07/2014 11.7C 6.0C 9.0C 1011.8 hPa 995.9 hPa 5.4 mm 8.0 mm/hr 07:10 hrs 11.3 km/hr 3.2 km/hr 15.8 km
05/07/2014 16.2C 11.1C 13.1C 1012.6 hPa 1009.1 hPa 3.2 mm 77.8 mm/hr 16:18 hrs 19.3 km/hr 6.4 km/hr 78.5 km
06/07/2014 15.1C 8.5C 11.3C 1020.6 hPa 1012.5 hPa 0.4 mm 0.0 mm/hr 00:00 hrs 8.0 km/hr 1.6 km/hr 3.9 km
07/07/2014 12.3C 10.1C 11.2C 1025.3 hPa 1020.5 hPa 3.4 mm 5.8 mm/hr 12:33 hrs 24.1 km/hr 6.4 km/hr 58.9 km
08/07/2014 12.4C 10.6C 11.5C 1025.1 hPa 1010.9 hPa 5.2 mm 2.2 mm/hr 18:07 hrs 37.0 km/hr 12.9 km/hr 186.7 km
09/07/2014 13.4C 11.3C 12.2C 1012.5 hPa 1008.7 hPa 5.0 mm 4.4 mm/hr 05:05 hrs 51.5 km/hr 12.9 km/hr 214.0 km
10/07/2014 14.2C 11.9C 13.0C 1020.0 hPa 1012.4 hPa 4.0 mm 5.2 mm/hr 02:04 hrs 45.1 km/hr 9.7 km/hr 179.8 km
11/07/2014 14.9C 11.9C 12.9C 1020.3 hPa 1012.5 hPa 4.2 mm 6.8 mm/hr 19:42 hrs 29.0 km/hr 9.7 km/hr 156.1 km
12/07/2014 12.7C 9.4C 11.6C 1012.8 hPa 1008.8 hPa 15.8 mm 39.0 mm/hr 05:56 hrs 32.2 km/hr 8.0 km/hr 41.6 km
13/07/2014 15.2C 8.2C 11.5C 1010.4 hPa 1007.3 hPa 0.4 mm 0.0 mm/hr 00:00 hrs 11.3 km/hr 3.2 km/hr 11.5 km
14/07/2014 11.4C 7.1C 8.9C 1010.1 hPa 1006.2 hPa 0.0 mm 0.0 mm/hr 00:00 hrs 4.8 km/hr 0.0 km/hr 0.0 km
15/07/2014 14.3C 5.4C 8.8C 1017.0 hPa 1009.9 hPa 0.0 mm 0.0 mm/hr 00:00 hrs 9.7 km/hr 1.6 km/hr 4.2 km
16/07/2014 13.3C 2.9C 7.0C 1018.7 hPa 1015.6 hPa 0.0 mm 0.0 mm/hr 00:00 hrs 16.1 km/hr 4.8 km/hr 6.0 km
17/07/2014 12.3C 3.2C 6.6C 1015.9 hPa 1011.5 hPa 0.4 mm 3.2 mm/hr 01:28 hrs 12.9 km/hr 3.2 km/hr 6.1 km
18/07/2014 11.9C 2.4C 6.0C 1011.8 hPa 1006.4 hPa 0.0 mm 0.0 mm/hr 00:00 hrs 12.9 km/hr 3.2 km/hr 11.6 km
19/07/2014 10.5C 2.4C 6.8C 1006.6 hPa 993.0 hPa 5.8 mm 6.8 mm/hr 18:38 hrs 20.9 km/hr 4.8 km/hr 50.9 km
20/07/2014 13.3C 7.5C 10.1C 999.2 hPa 991.3 hPa 6.2 mm 3.8 mm/hr 01:34 hrs 25.7 km/hr 6.4 km/hr 57.3 km
21/07/2014 13.2C 6.9C 8.9C 1002.2 hPa 998.8 hPa 15.6 mm 51.0 mm/hr 05:48 hrs 22.5 km/hr 4.8 km/hr 55.6 km
22/07/2014 9.7C 2.0C 5.6C 1009.5 hPa 1002.1 hPa 1.6 mm 3.0 mm/hr 11:40 hrs 9.7 km/hr 3.2 km/hr 4.0 km
23/07/2014 14.6C 2.3C 7.9C 1010.6 hPa 1007.4 hPa 0.0 mm 0.0 mm/hr 00:00 hrs 16.1 km/hr 3.2 km/hr 14.8 km
24/07/2014 13.3C 5.6C 8.5C 1016.0 hPa 1010.0 hPa 2.2 mm 18.4 mm/hr 11:06 hrs 9.7 km/hr 1.6 km/hr 4.1 km
25/07/2014 13.7C 7.4C 10.2C 1020.3 hPa 1014.9 hPa 6.4 mm 44.4 mm/hr 01:27 hrs 20.9 km/hr 4.8 km/hr 53.9 km
26/07/2014 14.7C 5.3C 9.5C 1024.9 hPa 1020.2 hPa 1.0 mm 1.4 mm/hr 23:27 hrs 12.9 km/hr 3.2 km/hr 6.3 km
27/07/2014 14.1C 5.3C 8.9C 1023.0 hPa 1019.9 hPa 1.0 mm 1.8 mm/hr 15:22 hrs 9.7 km/hr 3.2 km/hr 5.9 km
28/07/2014 14.2C 2.8C 7.3C 1025.4 hPa 1022.7 hPa 0.2 mm 0.0 mm/hr 00:00 hrs 9.7 km/hr 3.2 km/hr 7.3 km
29/07/2014 14.9C 4.7C 9.6C 1025.3 hPa 1022.3 hPa 0.0 mm 0.0 mm/hr 00:00 hrs 16.1 km/hr 4.8 km/hr 13.8 km
30/07/2014 16.2C 10.7C 12.6C 1022.6 hPa 1019.5 hPa 9.0 mm 13.2 mm/hr 00:40 hrs 12.9 km/hr 3.2 km/hr 15.6 km
Back to top 31/07/2014 17.1C 11.3C 13.3C 1027.3 hPa 1022.2 hPa 0.0 mm 0.0 mm/hr 00:00 hrs 11.3 km/hr 3.2 km/hr 9.2 km
Tabled Data - scroll down 2013 Temperature Pressure Rain Wind
for earlier years Maximum Minimum Average Maximum Minimum Day Total Maximum Rain Rate High Gust Highest Av Run
C C C hPa hPa mm mm/hr time km/h km/h km
01/07/2013 14.3C 5.7C 8.9C 1030.5 hPa 1026.4 hPa 6.0 mm 42.8 mm/hr 01:14 hrs 8.0 km/hr 1.6 km/hr 6.7 km
02/07/2013 15.6C 6.9C 9.8C 1031.8 hPa 1028.6 hPa 0.0 mm 0.0 mm/hr 00:00 hrs 9.7 km/hr 4.8 km/hr 4.5 km
03/07/2013 12.4C 7.3C 10.3C 1029.6 hPa 1017.3 hPa 7.8 mm 2.4 mm/hr 16:49 hrs 9.7 km/hr 1.6 km/hr 9.2 km
04/07/2013 16.9C 10.8C 13.0C 1019.6 hPa 1014.4 hPa 1.2 mm 0.0 mm/hr 00:00 hrs 16.1 km/hr 4.8 km/hr 28.7 km
05/07/2013 16.9C 11.1C 13.5C 1021.5 hPa 1017.8 hPa 0.0 mm 0.0 mm/hr 00:00 hrs 6.4 km/hr 1.6 km/hr 0.3 km
06/07/2013 16.3C 11.8C 13.3C 1017.9 hPa 1014.0 hPa 7.6 mm 134.0 mm/hr 20:26 hrs 12.9 km/hr 3.2 km/hr 20.2 km
07/07/2013 15.8C 7.7C 11.1C 1020.1 hPa 1016.1 hPa 0.2 mm 0.0 mm/hr 00:00 hrs 14.5 km/hr 3.2 km/hr 13.0 km
08/07/2013 14.6C 6.1C 10.3C 1020.6 hPa 1017.8 hPa 1.8 mm 2.6 mm/hr 21:43 hrs 11.3 km/hr 3.2 km/hr 18.4 km
09/07/2013 14.1C 4.3C 8.3C 1021.3 hPa 1015.5 hPa 11.2 mm 21.0 mm/hr 00:15 hrs 8.0 km/hr 1.6 km/hr 4.6 km
10/07/2013 12.1C 5.7C 8.2C 1020.7 hPa 1014.8 hPa 11.2 mm 116.4 mm/hr 02:05 hrs 11.3 km/hr 3.2 km/hr 17.8 km
11/07/2013 11.3C 4.2C 7.1C 1023.8 hPa 1020.5 hPa 0.0 mm 0.0 mm/hr 00:00 hrs 11.3 km/hr 4.8 km/hr 11.8 km
12/07/2013 12.1C 3.7C 7.5C 1020.9 hPa 1015.8 hPa 0.0 mm 0.0 mm/hr 00:00 hrs 9.7 km/hr 3.2 km/hr 11.1 km
13/07/2013 14.4C 5.7C 8.6C 1015.9 hPa 1003.7 hPa 1.4 mm 27.4 mm/hr 23:34 hrs 6.4 km/hr 1.6 km/hr 2.6 km
14/07/2013 13.2C 5.9C 8.8C 1007.9 hPa 998.4 hPa 6.2 mm 42.4 mm/hr 10:00 hrs 25.7 km/hr 6.4 km/hr 55.2 km
15/07/2013 11.3C 2.4C 6.2C 1023.8 hPa 1007.9 hPa 1.0 mm 34.8 mm/hr 14:17 hrs 24.1 km/hr 4.8 km/hr 21.6 km
16/07/2013 13.2C 2.7C 7.0C 1032.7 hPa 1023.7 hPa 0.2 mm 0.0 mm/hr 00:00 hrs 9.7 km/hr 3.2 km/hr 10.5 km
17/07/2013 13.6C 5.2C 9.5C 1033.8 hPa 1031.0 hPa 0.0 mm 0.0 mm/hr 00:00 hrs 9.7 km/hr 1.6 km/hr 8.1 km
18/07/2013 13.9C 9.1C 10.6C 1032.5 hPa 1029.2 hPa 0.0 mm 0.0 mm/hr 00:00 hrs 9.7 km/hr 1.6 km/hr 7.8 km
19/07/2013 14.4C 8.6C 10.5C 1030.2 hPa 1027.1 hPa 0.0 mm 0.0 mm/hr 00:00 hrs 8.0 km/hr 1.6 km/hr 2.2 km
20/07/2013 16.3C 7.9C 11.2C 1028.5 hPa 1025.4 hPa 0.0 mm 0.0 mm/hr 00:00 hrs 8.0 km/hr 1.6 km/hr 3.2 km
21/07/2013 15.9C 7.1C 10.7C 1026.7 hPa 1024.3 hPa 0.0 mm 0.0 mm/hr 00:00 hrs 8.0 km/hr 1.6 km/hr 3.3 km
22/07/2013 15.7C 6.0C 9.7C 1027.3 hPa 1023.8 hPa 0.0 mm 0.0 mm/hr 00:00 hrs 8.0 km/hr 3.2 km/hr 9.6 km
23/07/2013 15.8C 6.8C 10.5C 1024.0 hPa 1014.6 hPa 0.0 mm 0.0 mm/hr 00:00 hrs 9.7 km/hr 3.2 km/hr 7.9 km
24/07/2013 14.2C 9.1C 11.6C 1014.8 hPa 1008.8 hPa 7.4 mm 16.2 mm/hr 22:46 hrs 9.7 km/hr 3.2 km/hr 11.0 km
25/07/2013 14.3C 7.9C 10.6C 1018.1 hPa 1009.8 hPa 2.4 mm 17.4 mm/hr 16:19 hrs 11.3 km/hr 3.2 km/hr 16.0 km
26/07/2013 14.5C 8.4C 10.8C 1026.5 hPa 1018.1 hPa 0.2 mm 0.0 mm/hr 00:00 hrs 14.5 km/hr 3.2 km/hr 16.4 km
27/07/2013 15.1C 6.9C 10.6C 1030.9 hPa 1026.4 hPa 0.0 mm 0.0 mm/hr 00:00 hrs 9.7 km/hr 1.6 km/hr 5.5 km
28/07/2013 15.3C 5.9C 9.5C 1032.5 hPa 1029.4 hPa 0.0 mm 0.0 mm/hr 00:00 hrs 11.3 km/hr 3.2 km/hr 10.1 km
29/07/2013 15.7C 6.2C 9.5C 1031.9 hPa 1028.8 hPa 0.2 mm 0.0 mm/hr 00:00 hrs 9.7 km/hr 1.6 km/hr 7.6 km
30/07/2013 16.0C 6.1C 9.4C 1031.7 hPa 1028.2 hPa 0.0 mm 0.0 mm/hr 00:00 hrs 11.3 km/hr 3.2 km/hr 9.6 km
Back to top 31/07/2013 15.3C 7.2C 11.1C 1030.5 hPa 1025.3 hPa 0.0 mm 0.0 mm/hr 00:00 hrs 17.7 km/hr 4.8 km/hr 50.1 km
Tabled Data - scroll down 2012 Temperature Pressure Rain Wind
for earlier years Maximum Minimum Average Maximum Minimum Day Total Maximum Rain Rate High Gust Highest Av Run
C C C hPa hPa mm mm/hr time km/h km/h km
01/07/2012 12.4C 5.1C 7.8C 1023.4 hPa 1020.2 hPa 0.0 mm 0.0 mm/hr 00:00 hrs 20.9 km/hr 5.9 km/hr 40.2 km
02/07/2012 12.2C 5.6C 8.5C 1021.5 hPa 1011.5 hPa 2.0 mm 4.8 mm/hr 23:58 hrs 25.7 km/hr 7.7 km/hr 102.2 km
03/07/2012 11.7C 6.5C 9.6C 1011.6 hPa 1004.2 hPa 25.4 mm 52.6 mm/hr 12:20 hrs 24.1 km/hr 7.7 km/hr 65.2 km
04/07/2012 13.9C 7.6C 10.2C 1009.4 hPa 1005.4 hPa 1.8 mm 4.4 mm/hr 06:26 hrs 11.3 km/hr 3.4 km/hr 14.0 km
05/07/2012 14.5C 5.4C 9.2C 1009.5 hPa 1006.8 hPa 0.2 mm 0.0 mm/hr 00:00 hrs 9.7 km/hr 1.6 km/hr 7.7 km
06/07/2012 14.6C 3.8C 8.4C 1013.8 hPa 1008.4 hPa 0.0 mm 0.0 mm/hr 00:00 hrs 11.3 km/hr 4.8 km/hr 15.0 km
07/07/2012 14.7C 4.2C 7.9C 1021.6 hPa 1013.7 hPa 0.0 mm 0.0 mm/hr 00:00 hrs 8.0 km/hr 3.2 km/hr 9.9 km
08/07/2012 13.1C 2.6C 6.4C 1027.5 hPa 1021.6 hPa 0.0 mm 0.0 mm/hr 00:00 hrs 8.0 km/hr 1.6 km/hr 5.4 km
09/07/2012 14.2C 2.4C 7.0C 1030.6 hPa 1027.1 hPa 0.2 mm 0.0 mm/hr 00:00 hrs 11.3 km/hr 3.2 km/hr 8.9 km
10/07/2012 14.1C 4.1C 7.1C 1034.6 hPa 1030.1 hPa 0.0 mm 0.0 mm/hr 00:00 hrs 4.8 km/hr 1.6 km/hr 0.2 km
11/07/2012 12.9C 3.7C 7.9C 1036.6 hPa 1033.8 hPa 0.0 mm 0.0 mm/hr 00:00 hrs 6.4 km/hr 1.6 km/hr 2.3 km
12/07/2012 13.7C 7.8C 9.6C 1036.5 hPa 1032.9 hPa 0.0 mm 0.0 mm/hr 00:00 hrs 4.8 km/hr 1.6 km/hr 0.5 km
13/07/2012 14.0C 7.1C 9.4C 1033.6 hPa 1028.9 hPa 0.0 mm 0.0 mm/hr 00:00 hrs 9.7 km/hr 3.2 km/hr 6.8 km
14/07/2012 15.1C 7.1C 10.2C 1029.1 hPa 1025.2 hPa 0.0 mm 0.0 mm/hr 00:00 hrs 12.9 km/hr 3.2 km/hr 6.9 km
15/07/2012 14.1C 9.8C 12.7C 1025.3 hPa 1016.2 hPa 13.6 mm 5.6 mm/hr 22:47 hrs 16.1 km/hr 4.8 km/hr 33.0 km
16/07/2012 14.6C 11.5C 13.2C 1016.2 hPa 1006.0 hPa 17.0 mm 30.8 mm/hr 11:17 hrs 20.9 km/hr 6.4 km/hr 80.7 km
17/07/2012 14.5C 6.4C 10.6C 1026.7 hPa 1009.7 hPa 4.2 mm 20.4 mm/hr 04:34 hrs 20.9 km/hr 6.4 km/hr 62.9 km
18/07/2012 14.6C 5.7C 8.9C 1029.0 hPa 1026.5 hPa 0.0 mm 0.0 mm/hr 00:00 hrs 9.7 km/hr 3.2 km/hr 9.0 km
19/07/2012 14.7C 5.0C 9.2C 1030.2 hPa 1027.4 hPa 0.2 mm 0.0 mm/hr 00:00 hrs 22.5 km/hr 4.8 km/hr 27.5 km
20/07/2012 15.7C 7.4C 10.7C 1030.8 hPa 1027.4 hPa 0.0 mm 0.0 mm/hr 00:00 hrs 20.9 km/hr 6.4 km/hr 55.2 km
21/07/2012 15.3C 10.6C 12.4C 1027.6 hPa 1020.7 hPa 0.0 mm 0.0 mm/hr 00:00 hrs 20.9 km/hr 6.4 km/hr 85.4 km
22/07/2012 14.3C 12.2C 13.1C 1020.7 hPa 1011.7 hPa 31.8 mm 24.8 mm/hr 22:11 hrs 24.1 km/hr 6.4 km/hr 108.8 km
23/07/2012 16.6C 11.8C 14.3C 1011.8 hPa 1007.1 hPa 6.4 mm 6.6 mm/hr 15:35 hrs 16.1 km/hr 6.4 km/hr 50.3 km
24/07/2012 15.1C 11.6C 13.3C 1008.5 hPa 1005.2 hPa 6.2 mm 9.6 mm/hr 23:45 hrs 6.4 km/hr 3.2 km/hr 8.7 km
25/07/2012 16.9C 11.3C 13.7C 1013.1 hPa 1004.7 hPa 3.6 mm 14.0 mm/hr 17:48 hrs 16.1 km/hr 4.8 km/hr 30.8 km
26/07/2012 15.0C 6.4C 10.3C 1020.8 hPa 1013.0 hPa 0.2 mm 0.0 mm/hr 00:00 hrs 16.1 km/hr 4.8 km/hr 36.9 km
27/07/2012 14.1C 4.6C 7.8C 1023.8 hPa 1020.4 hPa 0.0 mm 0.0 mm/hr 00:00 hrs 9.7 km/hr 3.2 km/hr 12.4 km
28/07/2012 14.6C 5.3C 9.1C 1024.0 hPa 1018.2 hPa 0.6 mm 9.4 mm/hr 18:39 hrs 17.7 km/hr 6.4 km/hr 71.1 km
29/07/2012 12.6C 9.1C 11.1C 1018.2 hPa 997.7 hPa 11.0 mm 27.4 mm/hr 09:52 hrs 30.6 km/hr 11.3 km/hr 155.3 km
30/07/2012 14.2C 8.9C 11.5C 1000.7 hPa 991.5 hPa 29.8 mm 102.0 mm/hr 01:25 hrs 17.7 km/hr 6.4 km/hr 46.9 km
Back to top 31/07/2012 11.9C 5.9C 8.6C 1003.5 hPa 1000.6 hPa 2.2 mm 3.8 mm/hr 16:03 hrs 16.1 km/hr 3.2 km/hr 11.4 km
2011 Temperature Pressure Rain Wind
Maximum Minimum Average Maximum Minimum Day Total Maximum Rain Rate High Gust Highest Av Run
C C C hPa hPa mm mm/hr time km/h km/h km
01/07/2011 14.8C 4.3C 7.8C 1027.2 hPa 1022.5 hPa 0.0 mm 0.0 mm/hr 00:00 hrs 6.4 km/hr 2.1 km/hr 6.2 km
02/07/2011 13.8C 4.7C 8.9C 1029.3 hPa 1024.2 hPa 0.0 mm 0.0 mm/hr 00:00 hrs 17.7 km/hr 4.7 km/hr 30.0 km
03/07/2011 13.2C 7.2C 9.7C 1029.2 hPa 1023.5 hPa 0.0 mm 0.0 mm/hr 00:00 hrs 19.3 km/hr 5.9 km/hr 64.9 km
04/07/2011 13.3C 8.1C 10.4C 1023.6 hPa 1008.7 hPa 0.0 mm 0.0 mm/hr 00:00 hrs 16.1 km/hr 4.2 km/hr 37.3 km
05/07/2011 14.1C 8.3C 11.3C 1008.7 hPa 994.1 hPa 0.8 mm 3.2 mm/hr 23:38 hrs 19.3 km/hr 4.6 km/hr 43.8 km
06/07/2011 14.5C 9.6C 11.6C 999.5 hPa 990.8 hPa 15.0 mm 147.6 mm/hr 13:04 hrs 27.4 km/hr 6.4 km/hr 87.1 km
07/07/2011 15.2C 9.2C 11.9C 1003.3 hPa 993.1 hPa 0.2 mm 0.0 mm/hr 00:00 hrs 29.0 km/hr 7.1 km/hr 82.2 km
08/07/2011 13.3C 6.8C 10.5C 1005.4 hPa 990.3 hPa 10.6 mm 89.4 mm/hr 09:24 hrs 32.2 km/hr 8.0 km/hr 103.2 km
09/07/2011 15.7C 10.6C 13.1C 1006.6 hPa 1004.1 hPa 4.4 mm 36.2 mm/hr 19:41 hrs 20.9 km/hr 5.2 km/hr 81.0 km
10/07/2011 16.2C 10.2C 13.3C 1005.4 hPa 1003.9 hPa 4.0 mm 53.4 mm/hr 03:20 hrs 27.4 km/hr 5.6 km/hr 67.1 km
11/07/2011 15.2C 10.2C 12.4C 1004.6 hPa 994.6 hPa 20.8 mm 153.6 mm/hr 17:57 hrs 33.8 km/hr 8.4 km/hr 88.1 km
12/07/2011 13.5C 8.3C 11.4C 1007.9 hPa 994.3 hPa 2.4 mm 87.2 mm/hr 00:52 hrs 29.0 km/hr 6.4 km/hr 93.2 km
13/07/2011 15.8C 11.6C 13.2C 1010.5 hPa 1007.4 hPa 5.2 mm 107.6 mm/hr 17:05 hrs 20.9 km/hr 5.4 km/hr 68.1 km
14/07/2011 13.5C 6.7C 11.3C 1009.7 hPa 1003.2 hPa 12.6 mm 52.2 mm/hr 09:04 hrs 22.5 km/hr 6.1 km/hr 67.7 km
15/07/2011 11.1C 6.4C 7.8C 1013.6 hPa 1007.9 hPa 10.8 mm 51.0 mm/hr 10:20 hrs 20.9 km/hr 5.4 km/hr 58.5 km
16/07/2011 14.1C 5.9C 9.5C 1019.0 hPa 1013.5 hPa 6.2 mm 37.0 mm/hr 21:06 hrs 16.1 km/hr 4.0 km/hr 30.5 km
17/07/2011 15.5C 6.2C 9.7C 1027.4 hPa 1019.0 hPa 0.4 mm 0.0 mm/hr 00:00 hrs 9.7 km/hr 1.9 km/hr 5.2 km
18/07/2011 15.6C 5.3C 8.9C 1030.3 hPa 1027.2 hPa 0.0 mm 0.0 mm/hr 00:00 hrs 9.7 km/hr 2.8 km/hr 10.6 km
19/07/2011 15.6C 6.3C 9.7C 1031.0 hPa 1028.4 hPa 0.2 mm 0.0 mm/hr 00:00 hrs 12.9 km/hr 4.3 km/hr 24.1 km
20/07/2011 13.8C 8.7C 11.1C 1028.7 hPa 1019.2 hPa 0.0 mm 0.0 mm/hr 00:00 hrs 19.3 km/hr 7.0 km/hr 81.1 km
21/07/2011 13.7C 11.0C 11.9C 1019.2 hPa 1007.9 hPa 7.8 mm 13.4 mm/hr 15:49 hrs 24.1 km/hr 7.7 km/hr 112.6 km
22/07/2011 14.4C 10.8C 12.3C 1008.0 hPa 999.8 hPa 11.8 mm 9.6 mm/hr 20:09 hrs 19.3 km/hr 6.6 km/hr 97.8 km
23/07/2011 15.4C 10.8C 12.6C 999.9 hPa 985.7 hPa 8.4 mm 12.6 mm/hr 01:19 hrs 17.7 km/hr 5.1 km/hr 51.5 km
24/07/2011 12.8C 6.9C 10.3C 994.9 hPa 983.1 hPa 4.8 mm 22.4 mm/hr 07:26 hrs 24.1 km/hr 5.8 km/hr 56.5 km
25/07/2011 9.2C 2.7C 5.9C 1014.9 hPa 994.7 hPa 8.2 mm 25.0 mm/hr 05:11 hrs 20.9 km/hr 5.8 km/hr 58.3 km
26/07/2011 12.6C 1.9C 6.4C 1024.7 hPa 1014.8 hPa 0.4 mm 0.0 mm/hr 00:00 hrs 11.3 km/hr 3.8 km/hr 14.5 km
27/07/2011 14.6C 4.8C 9.5C 1024.4 hPa 1019.6 hPa 6.6 mm 15.6 mm/hr 18:50 hrs 17.7 km/hr 7.5 km/hr 45.6 km
28/07/2011 14.9C 8.3C 11.2C 1022.7 hPa 1019.9 hPa 5.4 mm 39.0 mm/hr 00:05 hrs 16.1 km/hr 2.9 km/hr 18.6 km
29/07/2011 13.6C 7.7C 10.0C 1023.1 hPa 1019.7 hPa 1.8 mm 4.6 mm/hr 00:41 hrs 12.9 km/hr 2.6 km/hr 21.4 km
30/07/2011 13.5C 6.7C 9.7C 1019.8 hPa 1016.1 hPa 5.4 mm 18.2 mm/hr 10:45 hrs 17.7 km/hr 3.5 km/hr 19.7 km
Back to top 31/07/2011 14.2C 5.2C 8.6C 1023.5 hPa 1018.8 hPa 0.2 mm 0.0 mm/hr 00:00 hrs 9.7 km/hr 2.1 km/hr 6.5 km
2010 Temperature Pressure Rain Wind
Maximum Minimum Average Maximum Minimum Day Total Maximum Rain Rate High Gust Highest Av Run
C C C hPa hPa mm mm/hr time km/h km/h km
01/07/2010 14.4C 7.3C 9.7C 1019.7 hPa 1013.8 hPa 1.4 mm 3.2 mm/hr 01:20 hrs 8.0 km/hr 2.7 km/hr 5.8 km
02/07/2010 16.4C 7.1C 9.8C 1023.7 hPa 1019.6 hPa 0.8 mm 12.2 mm/hr 13:21 hrs 11.3 km/hr 2.8 km/hr 5.1 km
03/07/2010 16.0C 6.9C 9.8C 1023.9 hPa 1019.1 hPa 0.2 mm 0.0 mm/hr 00:00 hrs 6.4 km/hr 1.5 km/hr 2.4 km
04/07/2010 11.3C 7.8C 9.7C 1019.5 hPa 1003.7 hPa 16.0 mm 7.4 mm/hr 14:36 hrs 27.4 km/hr 13.1 km/hr 93.8 km
05/07/2010 12.9C 9.6C 10.8C 1004.0 hPa 999.8 hPa 19.2 mm 8.4 mm/hr 04:39 hrs 22.5 km/hr 10.3 km/hr 52.5 km
06/07/2010 14.9C 10.4C 12.3C 1008.1 hPa 1003.0 hPa 1.8 mm 1.2 mm/hr 03:01 hrs 16.1 km/hr 2.4 km/hr 26.1 km
07/07/2010 13.7C 10.1C 11.5C 1008.1 hPa 1004.6 hPa 3.0 mm 3.4 mm/hr 03:18 hrs 17.7 km/hr 7.0 km/hr 62.7 km
08/07/2010 14.8C 6.2C 10.5C 1012.2 hPa 1006.9 hPa 2.6 mm 15.8 mm/hr 17:12 hrs 17.7 km/hr 6.7 km/hr 58.7 km
09/07/2010 13.4C 4.4C 7.4C 1024.0 hPa 1011.9 hPa 0.0 mm 0.0 mm/hr 00:00 hrs 6.4 km/hr 1.5 km/hr 3.8 km
10/07/2010 12.7C 2.6C 5.9C 1030.6 hPa 1024.0 hPa 0.0 mm 0.0 mm/hr 00:00 hrs 9.7 km/hr 3.6 km/hr 8.7 km
11/07/2010 12.2C 3.0C 6.0C 1031.6 hPa 1028.9 hPa 0.0 mm 0.0 mm/hr 00:00 hrs 9.7 km/hr 3.2 km/hr 10.7 km
12/07/2010 14.2C 4.1C 7.5C 1029.1 hPa 1024.4 hPa 0.0 mm 0.0 mm/hr 00:00 hrs 9.7 km/hr 2.8 km/hr 8.3 km
13/07/2010 14.4C 5.1C 8.0C 1024.8 hPa 1021.3 hPa 0.0 mm 0.0 mm/hr 00:00 hrs 9.7 km/hr 2.2 km/hr 4.3 km
14/07/2010 14.6C 3.7C 7.6C 1021.6 hPa 1018.1 hPa 0.0 mm 0.0 mm/hr 00:00 hrs 9.7 km/hr 3.1 km/hr 10.9 km
15/07/2010 15.2C 4.9C 8.5C 1018.3 hPa 1010.8 hPa 0.0 mm 0.0 mm/hr 00:00 hrs 8.0 km/hr 2.8 km/hr 7.6 km
16/07/2010 12.3C 7.3C 9.8C 1011.5 hPa 999.8 hPa 23.4 mm 43.4 mm/hr 15:31 hrs 17.7 km/hr 7.6 km/hr 39.5 km
17/07/2010 15.2C 7.5C 10.2C 1008.5 hPa 1004.2 hPa 6.6 mm 17.4 mm/hr 13:31 hrs 19.3 km/hr 5.3 km/hr 19.0 km
18/07/2010 16.3C 7.4C 10.0C 1020.5 hPa 1008.2 hPa 0.0 mm 0.0 mm/hr 00:00 hrs 9.7 km/hr 2.2 km/hr 7.3 km
19/07/2010 14.3C 7.2C 9.8C 1024.0 hPa 1020.4 hPa 0.6 mm 1.2 mm/hr 08:24 hrs 8.0 km/hr 1.8 km/hr 3.2 km
20/07/2010 13.8C 7.8C 9.5C 1024.6 hPa 1022.1 hPa 1.2 mm 4.2 mm/hr 06:27 hrs 11.3 km/hr 3.4 km/hr 9.6 km
21/07/2010 13.3C 7.8C 11.2C 1023.5 hPa 1016.7 hPa 22.0 mm 42.6 mm/hr 13:19 hrs 20.9 km/hr 7.8 km/hr 78.6 km
22/07/2010 15.2C 11.5C 13.1C 1017.2 hPa 1010.3 hPa 24.0 mm 28.6 mm/hr 03:48 hrs 17.7 km/hr 7.3 km/hr 41.4 km
23/07/2010 13.4C 9.2C 11.0C 1010.4 hPa 1005.4 hPa 12.0 mm 39.8 mm/hr 03:40 hrs 8.0 km/hr 2.6 km/hr 10.9 km
24/07/2010 17.2C 7.2C 10.5C 1015.9 hPa 1008.6 hPa 0.0 mm 0.0 mm/hr 00:00 hrs 6.4 km/hr 0.7 km/hr 1.3 km
25/07/2010 14.8C 6.3C 9.3C 1020.5 hPa 1015.5 hPa 1.2 mm 2.4 mm/hr 10:46 hrs 11.3 km/hr 3.1 km/hr 4.2 km
26/07/2010 14.9C 6.2C 9.7C 1022.4 hPa 1019.5 hPa 9.4 mm 56.2 mm/hr 21:30 hrs 12.9 km/hr 4.2 km/hr 10.7 km
27/07/2010 14.7C 6.3C 10.5C 1021.4 hPa 1016.9 hPa 2.2 mm 28.6 mm/hr 07:40 hrs 24.1 km/hr 5.6 km/hr 54.8 km
28/07/2010 14.7C 7.6C 10.3C 1024.5 hPa 1019.8 hPa 2.6 mm 26.8 mm/hr 04:51 hrs 12.9 km/hr 4.9 km/hr 26.0 km
29/07/2010 15.0C 6.8C 9.4C 1028.5 hPa 1024.3 hPa 1.4 mm 17.0 mm/hr 03:09 hrs 12.9 km/hr 2.5 km/hr 5.6 km
30/07/2010 14.5C 5.8C 8.8C 1033.2 hPa 1028.2 hPa 0.4 mm 1.4 mm/hr 01:02 hrs 8.0 km/hr 3.5 km/hr 8.4 km
Back to top 31/07/2010 14.8C 5.7C 9.6C 1034.8 hPa 1031.3 hPa 0.0 mm 0.0 mm/hr 00:00 hrs 17.7 km/hr 5.6 km/hr 34.9 km
2009 Temperature Pressure Rain Wind
Maximum Minimum Average Maximum Minimum Day Total Maximum Rain Rate High Gust Highest Av Run
C C C hPa hPa mm mm/hr time km/h km/h km
01/07/2009 13.0C 7.0C 10.0C 1010.0 hPa 1010.0 hPa 0.0 mm          
02/07/2009 12.6C 5.3C 9.0C 1012.0 hPa 1003.0 hPa 4.0 mm          
03/07/2009 14.9C 9.8C 12.4C 999.0 hPa 999.0 hPa 0.4 mm          
04/07/2009 12.8C 7.2C 10.0C 997.0 hPa 989.0 hPa 11.2 mm          
05/07/2009 13.5C 9.8C 11.7C 993.0 hPa 997.0 hPa 19.3 mm          
06/07/2009 13.1C 8.5C 10.8C 1006.0 hPa 1000.0 hPa 17.1 mm          
07/07/2009 14.1C 7.5C 10.8C 1016.0 hPa 1012.0 hPa 2.2 mm          
08/07/2009 12.7C 9.3C 11.0C 1018.0 hPa 1015.0 hPa 4.0 mm          
09/07/2009 11.4C 5.9C 8.7C 1026.0 hPa 1023.0 hPa 0.0 mm          
10/07/2009 11.9C 4.5C 8.2C 1025.0 hPa 1022.0 hPa 0.0 mm          
11/07/2009 9.1C 6.9C 8.0C 1016.0 hPa 1004.0 hPa 20.2 mm          
12/07/2009 9.9C 6.3C 8.1C 1000.0 hPa 998.0 hPa 3.1 mm          
13/07/2009 12.0C 4.4C 8.2C 1009.0 hPa 1008.0 hPa 0.0 mm          
14/07/2009 12.5C 4.2C 8.4C 1011.0 hPa 1006.0 hPa 11.2 mm          
15/07/2009 14.3C 11.3C 12.8C 1011.0 hPa 1008.0 hPa 2.7 mm          
16/07/2009 14.8C 10.0C 12.4C 1014.0 hPa 1012.0 hPa 5.8 mm          
17/07/2009 11.5C 9.5C 10.5C 1010.0 hPa 998.0 hPa 9.9 mm          
18/07/2009 12.1C 8.8C 10.5C 1002.0 hPa 990.0 hPa 11.7 mm          
19/07/2009 14.0C 9.4C 11.7C 1014.0 hPa 1010.0 hPa 3.6 mm          
20/07/2009 14.4C 8.6C 11.5C 1020.0 hPa 1016.0 hPa 1.8 mm          
21/07/2009 14.1C 7.6C 10.9C 1021.0 hPa 1016.0 hPa 1.3 mm          
22/07/2009 14.6C 10.1C 12.4C 1015.0 hPa 1014.0 hPa 10.3 mm          
23/07/2009 14.1C 8.0C 11.1C 1013.0 hPa 1003.0 hPa 3.1 mm          
24/07/2009 13.6C 11.0C 12.3C 1010.0 hPa 1005.0 hPa 5.8 mm          
25/07/2009 10.7C 4.0C 7.4C 1020.0 hPa 1018.0 hPa 0.0 mm          
26/07/2009 11.6C 3.3C 7.5C 1021.0 hPa 1020.0 hPa 0.0 mm          
27/07/2009 11.8C 4.1C 8.0C 1019.0 hPa 1018.0 hPa 0.0 mm          
28/07/2009 12.8C 5.2C 9.0C 1019.0 hPa 1013.0 hPa 0.0 mm          
29/07/2009 14.2C 10.6C 12.4C 1013.0 hPa 1010.0 hPa 2.2 mm          
30/07/2009 14.1C 8.1C 11.1C 1016.0 hPa 1014.0 hPa 2.2 mm          
Back to top 31/07/2009 14.2C 7.4C 10.8C 1017.0 hPa 1017.0 hPa 0.9 mm          
2008 Temperature Pressure Rain Wind
Maximum Minimum Average Maximum Minimum Day Total Maximum Rain Rate High Gust Highest Av Run
C C C hPa hPa mm mm/hr time km/h km/h km
01/07/2008 13.3C 7.6C 10.5C 1017.0 hPa 1016.0 hPa 2.2 mm          
02/07/2008 13.0C 8.8C 10.9C 1015.0 hPa 1013.0 hPa 2.2 mm          
03/07/2008 15.6C 9.4C 12.5C 1012.0 hPa 1009.0 hPa 5.4 mm          
04/07/2008 13.1C 7.9C 10.5C 1013.0 hPa 1008.0 hPa 7.6 mm          
05/07/2008 8.4C 6.0C 7.2C 1008.0 hPa 1004.0 hPa 10.8 mm          
06/07/2008 10.8C 5.2C 8.0C 1015.0 hPa 1009.0 hPa 4.0 mm          
07/07/2008 12.6C 4.8C 8.7C 1018.0 hPa 1016.0 hPa 5.4 mm          
08/07/2008 10.8C 3.4C 7.1C 1029.0 hPa 1027.0 hPa 0.0 mm          
09/07/2008 11.0C 4.0C 7.5C 1034.0 hPa 1033.0 hPa 0.0 mm          
10/07/2008 12.5C 3.3C 7.9C 1033.0 hPa 1031.0 hPa 4.9 mm          
11/07/2008 13.2C 9.8C 11.5C 1028.0 hPa 1027.0 hPa 4.0 mm          
12/07/2008 14.3C 12.2C 13.3C 1024.0 hPa 1024.0 hPa 6.3 mm          
13/07/2008 14.5C 9.2C 11.9C 1030.0 hPa 1028.0 hPa 0.9 mm          
14/07/2008 13.2C 8.3C 10.8C 1030.0 hPa 1028.0 hPa 0.0 mm          
15/07/2008 12.3C 8.5C 10.4C 1027.0 hPa 1026.0 hPa 0.4 mm          
16/07/2008 10.7C 7.5C 9.1C 1024.0 hPa 1021.0 hPa 10.8 mm          
17/07/2008 13.7C 10.4C 12.1C 1021.0 hPa 1019.0 hPa 3.6 mm          
18/07/2008 15.3C 10.9C 13.1C 1020.0 hPa 1018.0 hPa 2.2 mm          
19/07/2008 16.3C 13.3C 14.8C 1011.0 hPa 1007.0 hPa 4.9 mm          
20/07/2008 14.2C 9.6C 11.9C 1009.0 hPa 1007.0 hPa 7.6 mm          
21/07/2008 13.8C 8.7C 11.3C 1015.0 hPa 1012.0 hPa 1.8 mm          
22/07/2008 12.6C 9.1C 10.9C 1011.0 hPa 1005.0 hPa 19.8 mm          
23/07/2008 13.2C 9.0C 11.1C 1004.0 hPa 1004.0 hPa 7.2 mm          
24/07/2008 13.7C 9.2C 11.5C 1013.0 hPa 1009.0 hPa 1.8 mm          
25/07/2008 11.7C 6.1C 8.9C 1017.0 hPa 1014.0 hPa 0.0 mm          
26/07/2008 10.7C 6.8C 8.8C 1000.0 hPa 972.0 hPa 47.2 mm          
27/07/2008 9.8C 8.7C 9.3C 999.0 hPa 986.0 hPa 14.4 mm          
28/07/2008 13.7C 7.3C 10.5C 1010.0 hPa 1006.0 hPa 1.3 mm          
29/07/2008 11.7C 9.2C 10.5C 1010.0 hPa 1004.0 hPa 18.4 mm          
30/07/2008 13.2C 10.7C 12.0C 989.0 hPa 986.0 hPa 47.7 mm          
Back to top 31/07/2008 13.5C 10.9C 12.2C 999.0 hPa 997.0 hPa 22.5 mm          
2007 Temperature Pressure Rain Wind
Maximum Minimum Average Maximum Minimum Day Total Maximum Rain Rate High Gust Highest Av Run
C C C hPa hPa mm mm/hr time km/h km/h km
01/07/2007 13.4C 11.9C 12.7C 1004.0 hPa 998.0 hPa            
02/07/2007 16.8C 10.6C 13.7C 1003.0 hPa 1000.0 hPa            
03/07/2007 17.2C 10.2C 13.7C 1010.0 hPa 1008.0 hPa            
04/07/2007 17.2C 8.5C 12.9C 1005.0 hPa 1003.0 hPa            
05/07/2007 15.4C 10.5C 13.0C 1000.0 hPa 1000.0 hPa            
06/07/2007 15.0C 13.2C 14.1C 1000.0 hPa 995.0 hPa            
07/07/2007 12.2C 8.1C 10.2C 1012.0 hPa 1004.0 hPa            
08/07/2007 11.6C 7.2C 9.4C 1020.0 hPa 1016.0 hPa            
09/07/2007 14.3C 8.6C 11.5C 1016.0 hPa 1015.0 hPa            
10/07/2007 12.2C 10.0C 11.1C 1010.0 hPa 1001.0 hPa            
11/07/2007 14.3C 6.5C 10.4C 1002.0 hPa 1000.0 hPa            
12/07/2007 14.4C 6.6C 10.5C 1007.0 hPa 1004.0 hPa            
13/07/2007 13.2C 4.5C 8.9C 1013.0 hPa 1010.0 hPa            
14/07/2007 12.6C 5.7C 9.2C 1017.0 hPa 1014.0 hPa            
15/07/2007 11.6C 7.5C 9.6C 1017.0 hPa 1015.0 hPa            
16/07/2007 11.6C 9.5C 10.6C 1013.0 hPa 1012.0 hPa            
17/07/2007 15.2C 10.2C 12.7C 1007.0 hPa 1004.0 hPa            
18/07/2007 15.6C 8.7C 12.2C 1010.0 hPa 1008.0 hPa            
19/07/2007 16.3C 7.8C 12.1C 1013.0 hPa 1013.0 hPa            
20/07/2007 17.1C 9.4C 13.3C 1015.0 hPa 1014.0 hPa            
21/07/2007 12.9C 9.2C 11.1C 1010.0 hPa 1006.0 hPa            
22/07/2007 13.2C 9.2C 11.2C 1020.0 hPa 1006.0 hPa            
23/07/2007 14.5C 4.3C 9.4C 1023.0 hPa 1021.0 hPa            
24/07/2007 15.3C 7.6C 11.5C 1022.0 hPa 1021.0 hPa            
25/07/2007 15.3C 9.7C 12.5C 1023.0 hPa 1021.0 hPa            
26/07/2007 15.7C 9.3C 12.5C 1023.0 hPa 1022.0 hPa            
27/07/2007 15.7C 10.6C 13.2C 1024.0 hPa 1022.0 hPa            
28/07/2007 16.0C 9.5C 12.8C 1018.0 hPa 1014.0 hPa            
29/07/2007 15.1C 10.3C 12.7C 1004.0 hPa 1001.0 hPa            
30/07/2007 15.8C 10.1C 13.0C 1004.0 hPa 1002.0 hPa            
Back to top 31/07/2007 15.9C 9.4C 12.7C 1005.0 hPa 1004.0 hPa